createdAt,value
2023-05-22T00:01:56.806Z,4.22
2023-05-22T00:04:23.770Z,4.13
2023-05-22T00:06:50.657Z,4.13
2023-05-22T00:09:18.085Z,4.00
2023-05-22T00:11:45.093Z,4.57
2023-05-22T00:14:13.686Z,4.18
2023-05-22T00:16:41.181Z,4.28
2023-05-22T00:19:13.299Z,4.30
2023-05-22T00:21:40.618Z,4.40
2023-05-22T00:24:08.034Z,4.60
2023-05-22T00:26:34.918Z,4.20
2023-05-22T00:29:02.022Z,4.15
2023-05-22T00:31:28.857Z,4.70
2023-05-22T00:33:55.828Z,4.28
2023-05-22T00:36:22.891Z,4.63
2023-05-22T00:38:49.708Z,4.85
2023-05-22T00:41:16.504Z,4.30
2023-05-22T00:43:45.108Z,4.97
2023-05-22T00:46:12.681Z,4.15
2023-05-22T00:48:39.637Z,4.35
2023-05-22T00:51:08.000Z,4.35
2023-05-22T00:53:34.937Z,4.28
2023-05-22T00:56:01.856Z,3.97
2023-05-22T00:58:28.626Z,4.45
2023-05-22T01:00:56.367Z,4.63
2023-05-22T01:03:27.071Z,4.28
2023-05-22T01:05:54.884Z,4.65
2023-05-22T01:08:21.960Z,4.80
2023-05-22T01:10:54.348Z,4.20
2023-05-22T01:13:41.381Z,4.80
2023-05-22T01:16:36.173Z,4.50
2023-05-22T01:19:23.640Z,4.60
2023-05-22T01:22:05.900Z,4.38
2023-05-22T01:24:44.681Z,4.63
2023-05-22T01:27:52.823Z,4.63
2023-05-22T01:30:28.038Z,4.40
2023-05-22T01:32:58.100Z,4.72
2023-05-22T01:35:26.189Z,4.95
2023-05-22T01:37:54.642Z,4.50
2023-05-22T01:40:21.505Z,5.10
2023-05-22T01:42:48.415Z,4.35
2023-05-22T01:45:15.243Z,5.03
2023-05-22T01:47:42.084Z,4.68
2023-05-22T01:50:09.433Z,5.00
2023-05-22T01:53:06.501Z,5.25
2023-05-22T01:55:40.491Z,4.15
2023-05-22T01:58:44.068Z,4.60
2023-05-22T02:01:13.244Z,4.50
2023-05-22T02:03:41.683Z,4.85
2023-05-22T02:06:13.192Z,4.65
2023-05-22T02:08:41.817Z,5.00
2023-05-22T02:11:11.223Z,4.53
2023-05-22T02:13:38.112Z,4.60
2023-05-22T02:16:05.636Z,4.50
2023-05-22T02:18:32.407Z,4.90
2023-05-22T02:21:00.001Z,5.30
2023-05-22T02:23:29.719Z,4.82
2023-05-22T02:25:57.027Z,4.93
2023-05-22T02:28:24.392Z,4.93
2023-05-22T02:30:51.263Z,4.95
2023-05-22T02:33:18.585Z,4.90
2023-05-22T02:35:46.121Z,4.97
2023-05-22T02:38:12.996Z,5.18
2023-05-22T02:40:40.471Z,5.43
2023-05-22T02:43:07.445Z,5.25
2023-05-22T02:45:34.303Z,5.07
2023-05-22T02:48:03.560Z,5.30
2023-05-22T02:50:30.604Z,5.55
2023-05-22T02:52:57.383Z,4.95
2023-05-22T02:55:24.162Z,5.30
2023-05-22T02:57:51.005Z,5.30
2023-05-22T03:00:18.352Z,5.35
2023-05-22T03:02:45.164Z,6.00
2023-05-22T03:05:12.054Z,5.82
2023-05-22T03:07:38.757Z,5.57
2023-05-22T03:10:06.039Z,5.90
2023-05-22T03:12:32.969Z,4.88
2023-05-22T03:14:59.705Z,5.13
2023-05-22T03:17:26.605Z,5.95
2023-05-22T03:19:53.398Z,5.60
2023-05-22T03:22:20.347Z,6.07
2023-05-22T03:24:47.203Z,6.10
2023-05-22T03:27:17.025Z,6.00
2023-05-22T03:29:43.831Z,5.70
2023-05-22T03:32:10.916Z,5.57
2023-05-22T03:34:37.735Z,5.68
2023-05-22T03:37:04.621Z,5.22
2023-05-22T03:39:31.430Z,5.15
2023-05-22T03:41:58.228Z,5.30
2023-05-22T03:44:24.972Z,5.80
2023-05-22T03:46:52.155Z,5.72
2023-05-22T03:49:18.992Z,5.85
2023-05-22T03:51:45.822Z,5.68
2023-05-22T03:54:12.562Z,5.40
2023-05-22T03:56:39.512Z,5.53
2023-05-22T03:59:06.263Z,5.35
2023-05-22T04:01:33.149Z,5.57
2023-05-22T04:04:00.021Z,5.82
2023-05-22T04:06:26.971Z,5.30
2023-05-22T04:08:53.741Z,5.55
2023-05-22T04:11:20.986Z,5.80
2023-05-22T04:13:49.494Z,5.22
2023-05-22T04:16:17.505Z,5.88
2023-05-22T04:18:44.729Z,6.03
2023-05-22T04:21:12.784Z,6.13
2023-05-22T04:23:43.212Z,5.00
2023-05-22T04:26:10.433Z,5.28
2023-05-22T04:28:37.966Z,5.35
2023-05-22T04:31:06.584Z,5.60
2023-05-22T04:33:34.573Z,5.57
2023-05-22T04:36:02.320Z,5.32
2023-05-22T04:38:29.221Z,5.88
2023-05-22T04:40:56.707Z,5.50
2023-05-22T04:43:26.571Z,5.75
2023-05-22T04:45:54.807Z,6.03
2023-05-22T04:48:22.478Z,6.07
2023-05-22T04:50:49.917Z,5.55
2023-05-22T04:53:16.733Z,5.28
2023-05-22T04:55:44.156Z,5.30
2023-05-22T04:58:10.986Z,5.28
2023-05-22T05:00:38.130Z,4.80
2023-05-22T05:03:08.069Z,5.18
2023-05-22T05:05:35.171Z,4.65
2023-05-22T05:08:01.976Z,5.22
2023-05-22T05:10:28.793Z,4.82
2023-05-22T05:12:55.652Z,5.07
2023-05-22T05:15:23.739Z,4.60
2023-05-22T05:17:51.144Z,5.10
2023-05-22T05:20:18.074Z,4.95
2023-05-22T05:22:46.147Z,4.95
2023-05-22T05:25:13.434Z,4.68
2023-05-22T05:27:40.395Z,5.20
2023-05-22T05:30:07.782Z,4.68
2023-05-22T05:32:34.636Z,4.43
2023-05-22T05:35:01.786Z,4.90
2023-05-22T05:37:28.611Z,4.95
2023-05-22T05:39:55.372Z,4.35
2023-05-22T05:42:22.199Z,4.82
2023-05-22T05:44:49.097Z,6.15
2023-05-22T05:47:17.474Z,5.00
2023-05-22T05:49:44.316Z,4.63
2023-05-22T05:52:11.047Z,4.40
2023-05-22T05:54:37.887Z,4.63
2023-05-22T05:57:06.533Z,3.92
2023-05-22T05:59:33.300Z,4.13
2023-05-22T06:02:00.163Z,4.20
2023-05-22T06:04:28.188Z,4.25
2023-05-22T06:06:55.154Z,4.43
2023-05-22T06:09:22.316Z,4.25
2023-05-22T06:11:49.133Z,4.05
2023-05-22T06:14:15.901Z,4.22
2023-05-22T06:16:42.804Z,3.67
2023-05-22T06:19:09.595Z,4.38
2023-05-22T06:21:36.443Z,4.25
2023-05-22T06:24:03.420Z,4.32
2023-05-22T06:26:30.604Z,3.95
2023-05-22T06:28:57.490Z,4.20
2023-05-22T06:31:24.639Z,4.38
2023-05-22T06:33:52.119Z,4.07
2023-05-22T06:36:19.168Z,4.20
2023-05-22T06:38:49.689Z,3.83
2023-05-22T06:41:16.588Z,3.63
2023-05-22T06:43:43.338Z,3.53
2023-05-22T06:46:10.267Z,4.07
2023-05-22T06:48:37.212Z,3.75
2023-05-22T06:51:04.407Z,3.60
2023-05-22T06:53:31.211Z,3.90
2023-05-22T06:55:57.978Z,3.50
2023-05-22T06:58:24.771Z,3.55
2023-05-22T07:00:51.870Z,3.58
2023-05-22T07:03:18.628Z,3.67
2023-05-22T07:05:45.639Z,3.80
2023-05-22T07:08:12.766Z,3.30
2023-05-22T07:10:39.605Z,3.72
2023-05-22T07:13:06.601Z,4.13
2023-05-22T07:15:33.323Z,3.60
2023-05-22T07:18:00.194Z,3.58
2023-05-22T07:20:27.151Z,3.50
2023-05-22T07:22:54.048Z,3.50
2023-05-22T07:25:20.783Z,3.55
2023-05-22T07:27:47.514Z,3.50
2023-05-22T07:30:14.435Z,3.50
2023-05-22T07:32:41.437Z,3.30
2023-05-22T07:35:10.675Z,4.00
2023-05-22T07:37:37.935Z,3.88
2023-05-22T07:40:09.689Z,3.30
2023-05-22T07:42:36.620Z,3.33
2023-05-22T07:45:03.716Z,3.33
2023-05-22T07:47:30.682Z,2.90
2023-05-22T07:49:57.584Z,3.20
2023-05-22T07:52:24.398Z,3.10
2023-05-22T07:54:51.245Z,3.00
2023-05-22T07:57:18.054Z,2.92
2023-05-22T07:59:45.422Z,2.83
2023-05-22T08:02:12.418Z,2.97
2023-05-22T08:04:39.736Z,2.85
2023-05-22T08:07:07.013Z,2.95
2023-05-22T08:09:34.791Z,3.13
2023-05-22T08:12:01.685Z,3.00
2023-05-22T08:14:28.949Z,2.80
2023-05-22T08:16:56.998Z,2.85
2023-05-22T08:19:24.034Z,2.63
2023-05-22T08:21:52.936Z,3.35
2023-05-22T08:24:19.828Z,2.80
2023-05-22T08:26:46.644Z,2.70
2023-05-22T08:29:13.569Z,2.78
2023-05-22T08:31:40.433Z,2.60
2023-05-22T08:34:07.469Z,2.92
2023-05-22T08:36:34.480Z,2.38
2023-05-22T08:39:01.896Z,2.40
2023-05-22T08:41:29.618Z,2.85
2023-05-22T08:43:56.570Z,2.33
2023-05-22T08:46:26.353Z,2.83
2023-05-22T08:48:56.911Z,2.53
2023-05-22T08:51:28.608Z,2.72
2023-05-22T08:53:57.281Z,2.40
2023-05-22T08:56:26.065Z,2.30
2023-05-22T08:58:54.983Z,2.33
2023-05-22T09:01:22.982Z,3.60
2023-05-22T09:03:51.361Z,2.50
2023-05-22T09:06:18.620Z,2.10
2023-05-22T09:08:46.050Z,2.75
2023-05-22T09:11:13.283Z,2.58
2023-05-22T09:13:41.372Z,2.35
2023-05-22T09:16:12.306Z,2.58
2023-05-22T09:18:39.800Z,2.30
2023-05-22T09:21:17.737Z,2.28
2023-05-22T09:23:53.985Z,2.47
2023-05-22T09:26:21.499Z,2.47
2023-05-22T09:28:48.332Z,2.20
2023-05-22T09:31:15.285Z,2.67
2023-05-22T09:33:44.248Z,2.50
2023-05-22T09:36:11.675Z,1.90
2023-05-22T09:38:39.848Z,2.28
2023-05-22T09:41:06.684Z,2.28
2023-05-22T09:43:33.917Z,2.35
2023-05-22T09:46:02.343Z,2.20
2023-05-22T09:48:29.334Z,2.38
2023-05-22T09:51:00.081Z,2.53
2023-05-22T09:56:00.110Z,2.13
2023-05-22T09:58:30.849Z,2.17
2023-05-22T10:00:59.255Z,2.78
2023-05-22T10:03:27.047Z,2.38
2023-05-22T10:05:56.245Z,2.30
2023-05-22T10:08:28.970Z,2.40
2023-05-22T10:10:56.201Z,2.25
2023-05-22T10:13:24.268Z,2.33
2023-05-22T10:15:51.548Z,2.30
2023-05-22T10:18:18.746Z,2.20
2023-05-22T10:20:48.987Z,2.10
2023-05-22T10:23:17.087Z,2.63
2023-05-22T10:25:45.658Z,2.13
2023-05-22T10:28:19.577Z,2.20
2023-05-22T10:31:06.612Z,2.17
2023-05-22T10:33:44.814Z,2.20
2023-05-22T10:36:27.459Z,2.20
2023-05-22T10:38:57.715Z,2.60
2023-05-22T10:41:25.986Z,2.20
2023-05-22T10:43:56.677Z,2.42
2023-05-22T10:48:53.573Z,2.53
2023-05-22T10:51:22.069Z,2.40
2023-05-22T10:54:07.437Z,2.75
2023-05-22T10:56:35.637Z,2.85
2023-05-22T10:59:05.398Z,2.33
2023-05-22T11:01:37.591Z,2.42
2023-05-22T11:04:05.098Z,2.75
2023-05-22T11:06:42.169Z,2.50
2023-05-22T11:09:27.089Z,2.55
2023-05-22T11:12:24.992Z,2.40
2023-05-22T11:14:57.255Z,2.65
2023-05-22T11:17:29.265Z,2.10
2023-05-22T11:20:06.627Z,2.72
2023-05-22T11:22:56.908Z,4.90
2023-05-22T11:25:24.956Z,2.15
2023-05-22T11:27:53.730Z,2.30
2023-05-22T11:30:24.674Z,2.03
2023-05-22T11:32:51.554Z,1.85
2023-05-22T11:35:19.899Z,1.90
2023-05-22T11:37:47.597Z,3.10
2023-05-22T11:40:16.732Z,2.38
2023-05-22T11:42:44.333Z,2.42
2023-05-22T11:45:11.637Z,2.55
2023-05-22T11:47:39.220Z,2.10
2023-05-22T11:50:09.391Z,2.22
2023-05-22T11:52:38.062Z,2.25
2023-05-22T11:55:05.855Z,1.80
2023-05-22T11:57:32.786Z,2.20
2023-05-22T11:59:59.776Z,2.55
2023-05-22T12:02:26.862Z,3.10
2023-05-22T12:04:57.927Z,2.17
2023-05-22T12:07:26.522Z,2.00
2023-05-22T12:09:56.428Z,2.25
2023-05-22T12:12:23.538Z,2.15
2023-05-22T12:14:50.532Z,2.90
2023-05-22T12:17:18.144Z,2.30
2023-05-22T12:19:47.218Z,1.85
2023-05-22T12:22:14.452Z,1.98
2023-05-22T12:24:42.587Z,2.15
2023-05-22T12:27:12.760Z,2.33
2023-05-22T12:29:40.710Z,1.80
2023-05-22T12:32:11.091Z,2.30
2023-05-22T12:34:46.163Z,2.10
2023-05-22T12:37:25.066Z,2.00
2023-05-22T12:39:55.319Z,2.08
2023-05-22T12:42:22.477Z,1.70
2023-05-22T12:44:53.083Z,2.20
2023-05-22T12:49:46.854Z,1.83
2023-05-22T12:52:13.769Z,2.10
2023-05-22T12:54:41.279Z,2.10
2023-05-22T12:57:08.586Z,2.08
2023-05-22T12:59:37.110Z,3.17
2023-05-22T13:02:07.155Z,2.15
2023-05-22T13:04:34.205Z,2.65
2023-05-22T13:07:01.277Z,2.08
2023-05-22T13:09:28.420Z,2.20
2023-05-22T13:11:55.448Z,1.83
2023-05-22T13:14:22.352Z,2.13
2023-05-22T13:16:49.084Z,2.10
2023-05-22T13:19:16.183Z,2.15
2023-05-22T13:21:43.560Z,1.90
2023-05-22T13:24:10.958Z,2.10
2023-05-22T13:26:37.813Z,2.28
2023-05-22T13:29:04.888Z,1.98
2023-05-22T13:31:37.203Z,2.28
2023-05-22T13:34:04.784Z,2.10
2023-05-22T13:36:31.741Z,2.03
2023-05-22T13:38:58.843Z,2.15
2023-05-22T13:41:25.825Z,1.98
2023-05-22T13:43:52.715Z,2.25
2023-05-22T13:46:21.753Z,1.98
2023-05-22T13:48:48.722Z,2.50
2023-05-22T13:51:15.549Z,2.30
2023-05-22T13:53:42.483Z,2.10
2023-05-22T13:56:09.365Z,2.70
2023-05-22T13:58:36.135Z,2.33
2023-05-22T14:01:02.882Z,2.15
2023-05-22T14:03:30.508Z,2.33
2023-05-22T14:05:57.341Z,2.50
2023-05-22T14:08:24.560Z,2.13
2023-05-22T14:10:51.382Z,2.17
2023-05-22T14:13:18.296Z,1.90
2023-05-22T14:15:47.010Z,2.00
2023-05-22T14:18:16.351Z,2.20
2023-05-22T14:20:43.959Z,2.40
2023-05-22T14:23:11.729Z,2.60
2023-05-22T14:25:42.759Z,2.70
2023-05-22T14:28:11.384Z,2.22
2023-05-22T14:30:38.633Z,2.10
2023-05-22T14:33:06.218Z,2.50
2023-05-22T14:35:33.232Z,2.47
2023-05-22T14:38:00.036Z,2.35
2023-05-22T14:40:27.068Z,2.28
2023-05-22T14:42:54.465Z,2.03
2023-05-22T14:45:21.501Z,2.55
2023-05-22T14:47:48.322Z,2.30
2023-05-22T14:50:19.558Z,2.17
2023-05-22T14:52:48.332Z,2.28
2023-05-22T14:55:15.606Z,2.42
2023-05-22T14:57:42.447Z,2.67
2023-05-22T15:00:10.820Z,2.50
2023-05-22T15:02:37.797Z,2.35
2023-05-22T15:05:05.456Z,2.72
2023-05-22T15:10:02.413Z,2.13
2023-05-22T15:12:29.301Z,2.38
2023-05-22T15:14:56.119Z,2.15
2023-05-22T15:17:22.950Z,2.45
2023-05-22T15:19:49.834Z,2.38
2023-05-22T15:22:19.999Z,2.40
2023-05-22T15:24:48.170Z,2.75
2023-05-22T15:27:15.025Z,2.20
2023-05-22T15:29:42.006Z,2.58
2023-05-22T15:32:09.564Z,2.33
2023-05-22T15:34:36.583Z,2.58
2023-05-22T15:37:03.345Z,2.50
2023-05-22T15:39:30.372Z,2.75
2023-05-22T15:42:05.954Z,2.75
2023-05-22T15:44:33.478Z,2.38
2023-05-22T15:47:00.365Z,2.30
2023-05-22T15:49:30.200Z,2.38
2023-05-22T15:54:25.300Z,2.83
2023-05-22T15:56:52.134Z,2.63
2023-05-22T15:59:18.921Z,2.80
2023-05-22T16:01:45.789Z,2.15
2023-05-22T16:04:12.752Z,2.78
2023-05-22T16:06:39.512Z,2.28
2023-05-22T16:09:06.332Z,2.28
2023-05-22T16:11:34.313Z,2.67
2023-05-22T16:14:01.326Z,2.25
2023-05-22T16:16:28.358Z,2.40
2023-05-22T16:18:55.562Z,2.55
2023-05-22T16:21:22.393Z,2.45
2023-05-22T16:23:49.166Z,3.03
2023-05-22T16:26:15.951Z,2.40
2023-05-22T16:28:42.694Z,2.05
2023-05-22T16:31:09.646Z,1.92
2023-05-22T16:33:37.554Z,2.17
2023-05-22T16:36:06.056Z,2.30
2023-05-22T16:38:33.059Z,2.10
2023-05-22T16:40:59.998Z,1.73
2023-05-22T16:43:26.780Z,2.10
2023-05-22T16:45:53.562Z,2.22
2023-05-22T16:48:20.662Z,2.22
2023-05-22T16:50:47.516Z,2.08
2023-05-22T16:53:17.240Z,1.77
2023-05-22T16:55:44.162Z,2.08
2023-05-22T16:58:12.772Z,1.90
2023-05-22T17:00:40.278Z,1.70
2023-05-22T17:03:08.412Z,2.05
2023-05-22T17:05:37.438Z,1.60
2023-05-22T17:08:04.392Z,2.10
2023-05-22T17:10:31.270Z,1.77
2023-05-22T17:12:58.084Z,2.30
2023-05-22T17:15:24.838Z,2.35
2023-05-22T17:17:51.697Z,1.83
2023-05-22T17:20:18.952Z,2.00
2023-05-22T17:22:45.773Z,1.73
2023-05-22T17:25:13.303Z,1.63
2023-05-22T17:27:40.212Z,2.17
2023-05-22T17:30:07.886Z,2.67
2023-05-22T17:32:35.440Z,2.25
2023-05-22T17:35:02.376Z,2.22
2023-05-22T17:37:29.442Z,2.05
2023-05-22T17:39:56.263Z,2.72
2023-05-22T17:42:23.201Z,1.92
2023-05-22T17:44:50.006Z,1.92
2023-05-22T17:47:18.275Z,2.20
2023-05-22T17:49:45.108Z,2.10
2023-05-22T17:52:13.131Z,2.20
2023-05-22T17:54:40.071Z,2.10
2023-05-22T17:57:09.197Z,2.38
2023-05-22T17:59:38.455Z,1.92
2023-05-22T18:02:07.944Z,2.08
2023-05-22T18:04:34.768Z,1.85
2023-05-22T18:07:01.650Z,2.22
2023-05-22T18:09:28.732Z,2.47
2023-05-22T18:11:55.616Z,2.00
2023-05-22T18:14:22.546Z,2.00
2023-05-22T18:16:49.962Z,2.00
2023-05-22T18:19:16.818Z,2.25
2023-05-22T18:21:43.880Z,1.85
2023-05-22T18:24:10.832Z,2.10
2023-05-22T18:26:37.808Z,2.03
2023-05-22T18:29:04.613Z,2.17
2023-05-22T18:31:31.453Z,1.80
2023-05-22T18:33:58.236Z,1.77
2023-05-22T18:36:25.145Z,2.10
2023-05-22T18:38:51.874Z,2.08
2023-05-22T18:41:18.675Z,2.00
2023-05-22T18:43:45.502Z,2.35
2023-05-22T18:46:12.612Z,1.92
2023-05-22T18:48:39.417Z,2.00
2023-05-22T18:51:06.276Z,2.10
2023-05-22T18:53:33.155Z,2.28
2023-05-22T18:56:01.577Z,2.10
2023-05-22T18:58:28.403Z,1.98
2023-05-22T19:00:55.893Z,1.92
2023-05-22T19:03:22.933Z,2.08
2023-05-22T19:05:49.778Z,1.80
2023-05-22T19:08:16.646Z,2.13
2023-05-22T19:10:43.464Z,2.35
2023-05-22T19:13:10.272Z,1.98
2023-05-22T19:15:38.368Z,1.88
2023-05-22T19:18:05.569Z,2.03
2023-05-22T19:20:32.488Z,1.95
2023-05-22T19:22:59.374Z,1.80
2023-05-22T19:25:26.390Z,1.77
2023-05-22T19:27:53.190Z,2.03
2023-05-22T19:30:21.853Z,2.00
2023-05-22T19:32:55.837Z,2.00
2023-05-22T19:35:22.952Z,1.52
2023-05-22T19:37:50.044Z,1.77
2023-05-22T19:40:16.992Z,1.70
2023-05-22T19:42:43.763Z,1.95
2023-05-22T19:45:10.873Z,1.85
2023-05-22T19:47:37.734Z,1.98
2023-05-22T19:50:04.943Z,1.70
2023-05-22T19:52:31.906Z,2.25
2023-05-22T19:54:58.716Z,1.67
2023-05-22T19:57:27.057Z,1.83
2023-05-22T19:59:54.408Z,1.90
2023-05-22T20:02:21.302Z,1.90
2023-05-22T20:04:48.445Z,1.55
2023-05-22T20:07:15.702Z,1.85
2023-05-22T20:09:42.605Z,1.65
2023-05-22T20:12:10.429Z,1.80
2023-05-22T20:14:37.811Z,2.13
2023-05-22T20:17:05.517Z,1.60
2023-05-22T20:19:34.614Z,1.98
2023-05-22T20:22:02.045Z,1.75
2023-05-22T20:24:29.762Z,1.75
2023-05-22T20:26:56.968Z,1.98
2023-05-22T20:29:23.973Z,1.70
2023-05-22T20:31:54.621Z,1.67
2023-05-22T20:34:22.396Z,2.00
2023-05-22T20:36:49.161Z,1.73
2023-05-22T20:39:18.109Z,1.73
2023-05-22T20:41:46.346Z,1.65
2023-05-22T20:44:13.295Z,1.58
2023-05-22T20:46:40.209Z,1.77
2023-05-22T20:49:06.995Z,1.70
2023-05-22T20:51:34.181Z,1.73
2023-05-22T20:54:01.046Z,1.60
2023-05-22T20:56:27.900Z,2.08
2023-05-22T20:58:54.897Z,1.73
2023-05-22T21:01:22.508Z,1.50
2023-05-22T21:03:52.766Z,2.03
2023-05-22T21:06:20.146Z,1.70
2023-05-22T21:08:47.184Z,2.25
2023-05-22T21:11:14.239Z,1.70
2023-05-22T21:13:40.961Z,1.90
2023-05-22T21:16:07.752Z,1.45
2023-05-22T21:18:34.684Z,1.77
2023-05-22T21:21:01.746Z,1.60
2023-05-22T21:23:28.522Z,1.58
2023-05-22T21:25:55.288Z,1.85
2023-05-22T21:28:22.010Z,1.95
2023-05-22T21:30:48.712Z,1.70
2023-05-22T21:33:15.883Z,1.80
2023-05-22T21:35:42.782Z,1.90
2023-05-22T21:38:09.664Z,1.50
2023-05-22T21:40:36.486Z,1.77
2023-05-22T21:43:03.209Z,1.42
2023-05-22T21:45:31.055Z,2.03
2023-05-22T21:47:58.149Z,1.83
2023-05-22T21:50:25.016Z,1.52
2023-05-22T21:52:51.826Z,2.15
2023-05-22T21:55:18.679Z,1.60
2023-05-22T21:57:45.876Z,1.60
2023-05-22T22:00:13.462Z,1.60
2023-05-22T22:02:40.633Z,1.70
2023-05-22T22:05:07.898Z,1.67
2023-05-22T22:07:34.780Z,1.50
2023-05-22T22:10:01.510Z,1.67
2023-05-22T22:12:28.320Z,1.42
2023-05-22T22:14:55.103Z,1.63
2023-05-22T22:17:23.907Z,1.70
2023-05-22T22:19:53.599Z,1.65
2023-05-22T22:22:22.533Z,1.50
2023-05-22T22:24:49.401Z,1.80
2023-05-22T22:27:16.412Z,1.63
2023-05-22T22:29:43.769Z,1.73
2023-05-22T22:32:10.563Z,1.38
2023-05-22T22:34:37.571Z,1.48
2023-05-22T22:37:07.600Z,1.70
2023-05-22T22:39:34.417Z,1.58
2023-05-22T22:42:04.304Z,1.73
2023-05-22T22:44:31.827Z,1.63
2023-05-22T22:46:58.572Z,1.67
2023-05-22T22:49:25.303Z,1.50
2023-05-22T22:51:52.480Z,1.60
2023-05-22T22:54:19.361Z,1.40
2023-05-22T22:56:47.137Z,1.83
2023-05-22T22:59:14.056Z,1.50
2023-05-22T23:01:40.966Z,1.83
2023-05-22T23:04:08.010Z,1.48
2023-05-22T23:06:35.263Z,1.70
2023-05-22T23:09:03.740Z,1.40
2023-05-22T23:11:37.384Z,1.65
2023-05-22T23:14:08.483Z,1.83
2023-05-22T23:16:36.776Z,1.92
2023-05-22T23:19:04.807Z,1.50
2023-05-22T23:21:32.223Z,1.83
2023-05-22T23:24:01.453Z,1.27
2023-05-22T23:26:28.819Z,1.67
2023-05-22T23:28:55.611Z,1.58
2023-05-22T23:31:26.167Z,1.45
2023-05-22T23:33:53.358Z,1.40
2023-05-22T23:36:20.521Z,1.60
2023-05-22T23:38:47.969Z,1.50
2023-05-22T23:41:18.568Z,1.50
2023-05-22T23:43:46.190Z,1.70
2023-05-22T23:46:13.986Z,1.58
2023-05-22T23:48:41.858Z,1.88
2023-05-22T23:51:14.308Z,1.80
2023-05-22T23:53:42.009Z,1.70
2023-05-22T23:56:09.389Z,1.58
2023-05-22T23:58:37.773Z,1.83
